createdAt,value
2022-10-23T00:01:42.548Z,8.60
2022-10-23T00:04:17.021Z,8.50
2022-10-23T00:06:45.701Z,8.50
2022-10-23T00:09:16.995Z,8.50
2022-10-23T00:11:47.859Z,8.50
2022-10-23T00:14:18.294Z,8.40
2022-10-23T00:16:47.023Z,8.40
2022-10-23T00:19:14.654Z,8.40
2022-10-23T00:21:42.228Z,8.40
2022-10-23T00:26:42.230Z,8.40
2022-10-23T00:29:11.025Z,8.40
2022-10-23T00:31:38.743Z,8.50
2022-10-23T00:34:08.597Z,8.50
2022-10-23T00:36:37.277Z,8.50
2022-10-23T00:39:05.808Z,8.50
2022-10-23T00:41:33.679Z,8.50
2022-10-23T00:44:05.367Z,8.50
2022-10-23T00:46:33.453Z,8.50
2022-10-23T00:49:02.575Z,8.50
2022-10-23T00:51:35.679Z,8.50
2022-10-23T00:54:23.851Z,8.50
2022-10-23T00:56:56.816Z,8.60
2022-10-23T00:59:25.445Z,8.50
2022-10-23T01:01:55.269Z,8.60
2022-10-23T01:04:25.060Z,8.60
2022-10-23T01:06:57.695Z,8.60
2022-10-23T01:09:40.315Z,8.60
2022-10-23T01:12:17.015Z,8.60
2022-10-23T01:14:51.210Z,8.60
2022-10-23T01:17:55.498Z,8.60
2022-10-23T01:20:44.650Z,8.60
2022-10-23T01:23:27.942Z,8.70
2022-10-23T01:26:11.249Z,8.70
2022-10-23T01:28:50.631Z,8.70
2022-10-23T01:31:30.707Z,8.70
2022-10-23T01:34:06.101Z,8.70
2022-10-23T01:36:37.593Z,8.70
2022-10-23T01:39:16.118Z,8.70
2022-10-23T01:41:55.529Z,8.70
2022-10-23T01:44:35.780Z,8.70
2022-10-23T01:47:06.319Z,8.70
2022-10-23T01:49:34.141Z,8.70
2022-10-23T01:52:06.344Z,8.70
2022-10-23T01:54:38.606Z,8.60
2022-10-23T01:57:13.411Z,8.70
2022-10-23T01:59:52.210Z,8.60
2022-10-23T02:02:24.330Z,8.70
2022-10-23T02:05:11.696Z,8.60
2022-10-23T02:07:40.214Z,8.60
2022-10-23T02:10:09.529Z,8.60
2022-10-23T02:12:42.540Z,8.50
2022-10-23T02:15:23.218Z,8.50
2022-10-23T02:18:15.761Z,8.60
2022-10-23T02:20:48.424Z,8.50
2022-10-23T02:23:45.296Z,8.60
2022-10-23T02:26:27.902Z,8.50
2022-10-23T02:31:39.250Z,8.40
2022-10-23T02:34:09.006Z,8.40
2022-10-23T02:36:36.898Z,8.40
2022-10-23T02:39:05.902Z,8.40
2022-10-23T02:41:51.258Z,8.40
2022-10-23T02:44:49.222Z,8.40
2022-10-23T02:47:46.157Z,8.40
2022-10-23T02:50:42.190Z,8.40
2022-10-23T02:53:29.367Z,8.40
2022-10-23T02:56:23.802Z,8.40
2022-10-23T02:59:12.284Z,8.30
2022-10-23T03:01:51.901Z,8.30
2022-10-23T03:04:22.913Z,8.30
2022-10-23T03:06:51.938Z,8.30
2022-10-23T03:09:19.834Z,8.20
2022-10-23T03:11:48.244Z,8.20
2022-10-23T03:14:16.044Z,8.20
2022-10-23T03:16:43.680Z,8.20
2022-10-23T03:21:47.266Z,8.10
2022-10-23T03:24:14.989Z,8.20
2022-10-23T03:26:42.557Z,8.20
2022-10-23T03:29:09.521Z,8.20
2022-10-23T03:31:36.381Z,8.10
2022-10-23T03:34:07.509Z,8.10
2022-10-23T03:36:36.033Z,8.10
2022-10-23T03:39:04.634Z,8.10
2022-10-23T03:41:32.631Z,8.10
2022-10-23T03:44:00.410Z,8.10
2022-10-23T03:46:28.235Z,8.10
2022-10-23T03:48:58.291Z,8.10
2022-10-23T03:51:27.727Z,8.00
2022-10-23T03:53:56.016Z,8.00
2022-10-23T03:56:23.910Z,7.90
2022-10-23T03:58:53.116Z,7.90
2022-10-23T04:01:20.982Z,7.80
2022-10-23T04:03:49.054Z,7.80
2022-10-23T04:06:15.966Z,7.70
2022-10-23T04:08:44.937Z,7.60
2022-10-23T04:11:13.376Z,7.60
2022-10-23T04:13:41.038Z,7.50
2022-10-23T04:16:09.255Z,7.50
2022-10-23T04:18:36.193Z,7.50
2022-10-23T04:21:03.314Z,7.50
2022-10-23T04:23:30.188Z,7.40
2022-10-23T04:25:58.238Z,7.40
2022-10-23T04:28:26.342Z,7.40
2022-10-23T04:30:54.417Z,7.30
2022-10-23T04:33:23.681Z,7.30
2022-10-23T04:35:51.312Z,7.30
2022-10-23T04:38:18.210Z,7.30
2022-10-23T04:40:45.782Z,7.30
2022-10-23T04:43:13.408Z,7.30
2022-10-23T04:45:40.973Z,7.30
2022-10-23T04:48:08.619Z,7.20
2022-10-23T04:50:36.891Z,7.20
2022-10-23T04:53:05.030Z,7.20
2022-10-23T04:55:33.259Z,7.20
2022-10-23T04:58:01.861Z,7.10
2022-10-23T05:00:29.633Z,7.10
2022-10-23T05:02:56.633Z,7.10
2022-10-23T05:05:23.522Z,7.10
2022-10-23T05:07:50.424Z,7.10
2022-10-23T05:10:17.427Z,7.00
2022-10-23T05:12:46.205Z,7.10
2022-10-23T05:15:16.810Z,7.10
2022-10-23T05:17:47.981Z,7.10
2022-10-23T05:20:25.277Z,7.10
2022-10-23T05:22:57.166Z,7.10
2022-10-23T05:25:25.094Z,7.10
2022-10-23T05:27:52.986Z,7.00
2022-10-23T05:30:20.626Z,7.00
2022-10-23T05:32:48.758Z,7.00
2022-10-23T05:35:19.300Z,6.90
2022-10-23T05:37:49.349Z,6.90
2022-10-23T05:40:17.657Z,6.80
2022-10-23T05:42:46.907Z,6.80
2022-10-23T05:45:15.841Z,6.70
2022-10-23T05:47:45.994Z,6.80
2022-10-23T05:50:15.671Z,6.70
2022-10-23T05:52:47.986Z,6.70
2022-10-23T05:55:16.737Z,6.70
2022-10-23T05:57:46.151Z,6.60
2022-10-23T06:00:14.699Z,6.60
2022-10-23T06:02:43.223Z,6.60
2022-10-23T06:05:10.394Z,6.60
2022-10-23T06:07:38.693Z,6.50
2022-10-23T06:10:08.582Z,6.50
2022-10-23T06:12:37.078Z,6.50
2022-10-23T06:15:05.061Z,6.50
2022-10-23T06:17:33.168Z,6.40
2022-10-23T06:20:02.731Z,6.50
2022-10-23T06:22:31.744Z,6.40
2022-10-23T06:25:00.025Z,6.40
2022-10-23T06:27:27.883Z,6.30
2022-10-23T06:29:56.314Z,6.30
2022-10-23T06:32:23.915Z,6.30
2022-10-23T06:34:53.310Z,6.30
2022-10-23T06:37:22.049Z,6.30
2022-10-23T06:39:50.335Z,6.30
2022-10-23T06:42:18.092Z,6.30
2022-10-23T06:44:46.323Z,6.30
2022-10-23T06:47:14.569Z,6.30
2022-10-23T06:49:41.611Z,6.30
2022-10-23T06:52:18.351Z,6.30
2022-10-23T06:54:50.963Z,6.30
2022-10-23T06:57:19.317Z,6.30
2022-10-23T06:59:47.135Z,6.30
2022-10-23T07:02:15.047Z,6.30
2022-10-23T07:04:41.919Z,6.30
2022-10-23T07:07:08.851Z,6.30
2022-10-23T07:09:36.800Z,6.30
2022-10-23T07:12:04.742Z,6.30
2022-10-23T07:14:32.865Z,6.30
2022-10-23T07:17:02.039Z,6.30
2022-10-23T07:19:30.459Z,6.30
2022-10-23T07:21:57.416Z,6.30
2022-10-23T07:24:25.258Z,6.30
2022-10-23T07:26:53.727Z,6.30
2022-10-23T07:29:22.051Z,6.30
2022-10-23T07:31:49.667Z,6.40
2022-10-23T07:34:17.411Z,6.30
2022-10-23T07:36:47.115Z,6.40
2022-10-23T07:39:15.724Z,6.40
2022-10-23T07:41:43.239Z,6.40
2022-10-23T07:44:10.812Z,6.40
2022-10-23T07:46:38.365Z,6.40
2022-10-23T07:49:06.419Z,6.40
2022-10-23T07:51:34.046Z,6.40
2022-10-23T07:54:01.557Z,6.40
2022-10-23T07:56:30.071Z,6.40
2022-10-23T07:58:58.156Z,6.40
2022-10-23T08:01:34.531Z,6.40
2022-10-23T08:04:02.545Z,6.40
2022-10-23T08:06:30.584Z,6.40
2022-10-23T08:08:59.914Z,6.40
2022-10-23T08:11:35.191Z,6.40
2022-10-23T08:14:05.973Z,6.40
2022-10-23T08:16:35.969Z,6.40
2022-10-23T08:19:06.583Z,6.60
2022-10-23T08:21:36.081Z,6.50
2022-10-23T08:24:04.725Z,6.50
2022-10-23T08:26:32.630Z,6.50
2022-10-23T08:29:00.517Z,6.60
2022-10-23T08:31:28.826Z,6.60
2022-10-23T08:33:56.554Z,6.70
2022-10-23T08:36:28.071Z,6.60
2022-10-23T08:38:57.290Z,6.60
2022-10-23T08:41:38.501Z,6.60
2022-10-23T08:44:24.890Z,6.70
2022-10-23T08:47:15.742Z,6.70
2022-10-23T08:50:04.069Z,6.70
2022-10-23T08:52:44.125Z,6.80
2022-10-23T08:55:23.520Z,6.80
2022-10-23T08:58:18.735Z,6.80
2022-10-23T09:00:49.637Z,6.80
2022-10-23T09:03:18.654Z,6.90
2022-10-23T09:06:13.588Z,6.80
2022-10-23T09:09:08.690Z,6.80
2022-10-23T09:11:47.904Z,6.90
2022-10-23T09:14:40.645Z,6.90
2022-10-23T09:17:24.919Z,7.00
2022-10-23T09:20:22.113Z,7.00
2022-10-23T09:22:58.902Z,7.10
2022-10-23T09:25:32.178Z,7.10
2022-10-23T09:28:05.340Z,7.10
2022-10-23T09:30:40.128Z,7.20
2022-10-23T09:33:14.806Z,7.30
2022-10-23T09:36:04.558Z,7.40
2022-10-23T09:38:34.351Z,7.40
2022-10-23T09:41:27.493Z,7.40
2022-10-23T09:44:10.947Z,7.50
2022-10-23T09:46:39.221Z,7.50
2022-10-23T09:49:20.253Z,7.60
2022-10-23T09:52:10.216Z,7.70
2022-10-23T09:54:56.529Z,7.80
2022-10-23T09:57:37.538Z,7.80
2022-10-23T10:00:14.390Z,7.90
2022-10-23T10:02:55.301Z,8.00
2022-10-23T10:05:29.623Z,8.10
2022-10-23T10:08:22.646Z,8.20
2022-10-23T10:11:01.046Z,8.30
2022-10-23T10:13:38.172Z,8.40
2022-10-23T10:16:27.163Z,8.50
2022-10-23T10:19:02.083Z,8.60
2022-10-23T10:22:17.947Z,8.70
2022-10-23T10:24:55.941Z,8.80
2022-10-23T10:27:29.290Z,8.90
2022-10-23T10:30:00.576Z,9.00
2022-10-23T10:32:32.126Z,9.20
2022-10-23T10:35:19.455Z,9.30
2022-10-23T10:38:10.056Z,9.40
2022-10-23T10:40:43.361Z,9.40
2022-10-23T10:43:18.905Z,9.60
2022-10-23T10:45:49.810Z,9.70
2022-10-23T10:48:36.747Z,9.80
2022-10-23T10:51:23.398Z,9.90
2022-10-23T10:54:29.266Z,10.00
2022-10-23T10:57:00.431Z,10.20
2022-10-23T10:59:32.042Z,10.20
2022-10-23T11:02:23.788Z,10.40
2022-10-23T11:05:42.310Z,10.50
2022-10-23T11:08:21.607Z,10.70
2022-10-23T11:10:54.971Z,10.80
2022-10-23T11:13:33.645Z,11.00
2022-10-23T11:16:10.062Z,11.20
2022-10-23T11:18:43.144Z,11.50
2022-10-23T11:21:29.209Z,11.60
2022-10-23T11:24:25.696Z,11.80
2022-10-23T11:27:29.244Z,12.10
2022-10-23T11:30:25.682Z,12.30
2022-10-23T11:32:53.222Z,12.50
2022-10-23T11:35:43.041Z,12.70
2022-10-23T11:38:13.612Z,12.80
2022-10-23T11:40:52.499Z,13.10
2022-10-23T11:43:46.822Z,13.40
2022-10-23T11:46:33.117Z,13.50
2022-10-23T11:49:03.826Z,13.60
2022-10-23T11:51:39.721Z,13.90
2022-10-23T11:54:28.310Z,13.90
2022-10-23T11:57:10.535Z,14.20
2022-10-23T11:59:45.218Z,14.30
2022-10-23T12:02:33.662Z,14.40
2022-10-23T12:05:07.249Z,14.60
2022-10-23T12:07:41.577Z,14.70
2022-10-23T12:10:34.408Z,14.80
2022-10-23T12:13:04.702Z,14.90
2022-10-23T12:15:36.612Z,15.00
2022-10-23T12:18:15.221Z,15.10
2022-10-23T12:20:59.293Z,15.30
2022-10-23T12:23:48.235Z,15.40
2022-10-23T12:26:37.874Z,15.50
2022-10-23T12:29:41.892Z,15.60
2022-10-23T12:32:25.177Z,15.80
2022-10-23T12:34:56.418Z,15.90
2022-10-23T12:37:37.816Z,15.90
2022-10-23T12:40:09.499Z,15.70
2022-10-23T12:42:39.035Z,15.80
2022-10-23T12:45:18.838Z,15.90
2022-10-23T12:47:47.744Z,16.00
2022-10-23T12:50:34.473Z,15.90
2022-10-23T12:53:06.723Z,15.90
2022-10-23T12:56:07.331Z,16.00
2022-10-23T12:58:35.862Z,16.10
2022-10-23T13:01:06.938Z,16.10
2022-10-23T13:03:35.028Z,16.10
2022-10-23T13:06:03.138Z,16.10
2022-10-23T13:08:40.428Z,16.10
2022-10-23T13:11:14.369Z,16.10
2022-10-23T13:13:43.197Z,16.00
2022-10-23T13:16:17.218Z,15.90
2022-10-23T13:18:45.801Z,15.80
2022-10-23T13:21:26.590Z,15.60
2022-10-23T13:23:56.295Z,15.60
2022-10-23T13:26:32.906Z,15.40
2022-10-23T13:29:06.147Z,15.20
2022-10-23T13:31:36.414Z,15.10
2022-10-23T13:34:14.480Z,15.00
2022-10-23T13:36:58.227Z,14.90
2022-10-23T13:39:30.240Z,14.90
2022-10-23T13:42:11.273Z,14.90
2022-10-23T13:44:38.217Z,14.80
2022-10-23T13:47:13.202Z,14.90
2022-10-23T13:49:40.825Z,14.90
2022-10-23T13:52:12.689Z,14.70
2022-10-23T13:54:43.594Z,14.50
2022-10-23T13:57:16.006Z,14.30
2022-10-23T13:59:45.201Z,14.10
2022-10-23T14:02:19.749Z,13.90
2022-10-23T14:04:50.834Z,13.70
2022-10-23T14:07:19.821Z,13.50
2022-10-23T14:09:50.585Z,13.40
2022-10-23T14:12:18.524Z,13.30
2022-10-23T14:14:51.955Z,13.10
2022-10-23T14:17:21.260Z,13.00
2022-10-23T14:19:50.352Z,12.80
2022-10-23T14:22:20.076Z,12.80
2022-10-23T14:24:48.298Z,12.60
2022-10-23T14:27:17.727Z,12.60
2022-10-23T14:29:46.056Z,12.50
2022-10-23T14:32:14.526Z,12.30
2022-10-23T14:34:44.388Z,12.20
2022-10-23T14:37:13.320Z,12.10
2022-10-23T14:39:46.192Z,12.00
2022-10-23T14:42:17.731Z,11.90
2022-10-23T14:44:45.391Z,11.80
2022-10-23T14:47:12.990Z,11.60
2022-10-23T14:49:44.793Z,11.50
2022-10-23T14:52:14.229Z,11.50
2022-10-23T14:54:42.070Z,11.40
2022-10-23T14:57:12.495Z,11.30
2022-10-23T14:59:42.107Z,11.20
2022-10-23T15:02:11.857Z,11.20
2022-10-23T15:04:40.367Z,11.10
2022-10-23T15:07:10.481Z,11.00
2022-10-23T15:09:39.734Z,10.90
2022-10-23T15:12:08.063Z,10.90
2022-10-23T15:14:36.369Z,10.80
2022-10-23T15:17:04.666Z,10.70
2022-10-23T15:19:34.918Z,10.60
2022-10-23T15:22:04.085Z,10.60
2022-10-23T15:24:32.436Z,10.50
2022-10-23T15:27:02.063Z,10.50
2022-10-23T15:29:30.299Z,10.40
2022-10-23T15:31:59.437Z,10.40
2022-10-23T15:34:29.288Z,10.40
2022-10-23T15:36:57.853Z,10.40
2022-10-23T15:39:27.922Z,10.30
2022-10-23T15:41:57.179Z,10.20
2022-10-23T15:44:28.280Z,10.20
2022-10-23T15:46:57.254Z,10.10
2022-10-23T15:49:26.710Z,10.00
2022-10-23T15:51:54.519Z,10.00
2022-10-23T15:54:22.466Z,9.90
2022-10-23T15:56:52.850Z,9.90
2022-10-23T15:59:22.702Z,9.80
2022-10-23T16:01:51.745Z,9.80
2022-10-23T16:04:19.418Z,9.80
2022-10-23T16:06:47.988Z,9.70
2022-10-23T16:09:16.996Z,9.70
2022-10-23T16:11:45.079Z,9.60
2022-10-23T16:14:16.315Z,9.60
2022-10-23T16:16:44.087Z,9.60
2022-10-23T16:19:12.659Z,9.50
2022-10-23T16:21:42.746Z,9.50
2022-10-23T16:24:11.684Z,9.50
2022-10-23T16:26:39.718Z,9.50
2022-10-23T16:29:09.616Z,9.50
2022-10-23T16:31:37.718Z,9.40
2022-10-23T16:34:06.830Z,9.40
2022-10-23T16:36:35.113Z,9.30
2022-10-23T16:39:05.099Z,9.30
2022-10-23T16:41:32.850Z,9.20
2022-10-23T16:44:00.890Z,9.20
2022-10-23T16:46:28.542Z,9.20
2022-10-23T16:48:56.555Z,9.20
2022-10-23T16:51:26.642Z,9.20
2022-10-23T16:53:55.789Z,9.20
2022-10-23T16:56:24.637Z,9.20
2022-10-23T16:58:52.968Z,9.10
2022-10-23T17:01:25.009Z,9.10
2022-10-23T17:03:54.387Z,9.00
2022-10-23T17:06:28.811Z,9.00
2022-10-23T17:08:58.462Z,9.00
2022-10-23T17:11:35.512Z,9.00
2022-10-23T17:14:07.058Z,8.90
2022-10-23T17:16:40.302Z,9.00
2022-10-23T17:19:20.711Z,9.00
2022-10-23T17:21:56.182Z,9.00
2022-10-23T17:24:23.938Z,9.00
2022-10-23T17:26:52.624Z,8.90
2022-10-23T17:29:22.169Z,8.90
2022-10-23T17:31:51.535Z,8.90
2022-10-23T17:34:23.401Z,9.00
2022-10-23T17:36:54.959Z,9.00
2022-10-23T17:39:25.985Z,9.00
2022-10-23T17:41:54.939Z,8.90
2022-10-23T17:44:24.111Z,9.00
2022-10-23T17:46:54.380Z,8.90
2022-10-23T17:49:24.913Z,8.90
2022-10-23T17:51:55.932Z,8.90
2022-10-23T17:54:26.739Z,8.90
2022-10-23T17:56:56.028Z,8.90
2022-10-23T17:59:23.660Z,8.90
2022-10-23T18:01:53.409Z,8.90
2022-10-23T18:04:21.811Z,8.90
2022-10-23T18:06:53.165Z,8.90
2022-10-23T18:09:23.192Z,9.00
2022-10-23T18:11:52.809Z,9.00
2022-10-23T18:14:22.142Z,9.00
2022-10-23T18:16:50.551Z,9.10
2022-10-23T18:19:18.945Z,9.10
2022-10-23T18:21:47.835Z,9.20
2022-10-23T18:24:18.598Z,9.20
2022-10-23T18:26:48.251Z,9.20
2022-10-23T18:29:17.563Z,9.20
2022-10-23T18:31:48.049Z,9.20
2022-10-23T18:34:18.614Z,9.20
2022-10-23T18:36:46.341Z,9.20
2022-10-23T18:39:16.594Z,9.20
2022-10-23T18:41:45.813Z,9.20
2022-10-23T18:44:20.116Z,9.20
2022-10-23T18:46:49.445Z,9.20
2022-10-23T18:49:19.176Z,9.20
2022-10-23T18:51:46.791Z,9.20
2022-10-23T18:54:16.379Z,9.10
2022-10-23T18:56:45.820Z,9.10
2022-10-23T18:59:17.443Z,9.10
2022-10-23T19:01:44.742Z,9.10
2022-10-23T19:04:15.797Z,9.10
2022-10-23T19:06:43.297Z,9.00
2022-10-23T19:09:13.781Z,9.00
2022-10-23T19:11:42.994Z,9.10
2022-10-23T19:14:11.515Z,9.00
2022-10-23T19:17:03.790Z,9.10
2022-10-23T19:19:45.594Z,9.00
2022-10-23T19:22:16.657Z,9.00
2022-10-23T19:24:49.540Z,9.00
2022-10-23T19:27:19.346Z,9.00
2022-10-23T19:29:50.098Z,8.90
2022-10-23T19:32:18.704Z,8.90
2022-10-23T19:34:46.354Z,9.00
2022-10-23T19:39:44.378Z,9.00
2022-10-23T19:42:12.717Z,8.90
2022-10-23T19:44:41.031Z,9.00
2022-10-23T19:47:11.107Z,9.00
2022-10-23T19:49:39.373Z,8.90
2022-10-23T19:52:07.808Z,8.90
2022-10-23T19:54:36.150Z,9.00
2022-10-23T19:57:04.408Z,9.00
2022-10-23T19:59:32.072Z,9.00
2022-10-23T20:01:59.970Z,9.00
2022-10-23T20:04:28.918Z,8.90
2022-10-23T20:06:58.016Z,8.90
2022-10-23T20:09:25.739Z,8.90
2022-10-23T20:11:52.881Z,8.90
2022-10-23T20:14:19.826Z,8.90
2022-10-23T20:16:51.063Z,8.90
2022-10-23T20:19:21.196Z,8.90
2022-10-23T20:21:50.087Z,8.90
2022-10-23T20:24:19.891Z,8.90
2022-10-23T20:26:50.542Z,8.90
2022-10-23T20:29:18.725Z,8.80
2022-10-23T20:31:47.868Z,8.90
2022-10-23T20:34:16.353Z,8.90
2022-10-23T20:36:47.315Z,8.80
2022-10-23T20:39:21.996Z,8.80
2022-10-23T20:41:50.509Z,8.80
2022-10-23T20:44:19.294Z,8.80
2022-10-23T20:46:46.409Z,8.80
2022-10-23T20:49:15.004Z,8.80
2022-10-23T20:51:43.256Z,8.70
2022-10-23T20:54:11.625Z,8.80
2022-10-23T20:56:40.028Z,8.80
2022-10-23T20:59:12.266Z,8.70
2022-10-23T21:01:46.389Z,8.70
2022-10-23T21:04:14.419Z,8.80
2022-10-23T21:06:57.652Z,8.70
2022-10-23T21:09:32.167Z,8.70
2022-10-23T21:12:00.637Z,8.70
2022-10-23T21:14:28.939Z,8.70
2022-10-23T21:16:57.217Z,8.70
2022-10-23T21:19:25.026Z,8.60
2022-10-23T21:21:52.810Z,8.60
2022-10-23T21:24:19.771Z,8.60
2022-10-23T21:26:47.569Z,8.60
2022-10-23T21:29:18.884Z,8.60
2022-10-23T21:31:55.341Z,8.50
2022-10-23T21:34:24.847Z,8.50
2022-10-23T21:37:12.925Z,8.50
2022-10-23T21:39:44.408Z,8.50
2022-10-23T21:42:13.751Z,8.50
2022-10-23T21:44:40.681Z,8.50
2022-10-23T21:47:07.836Z,8.50
2022-10-23T21:49:35.477Z,8.50
2022-10-23T21:52:02.436Z,8.50
2022-10-23T21:54:30.285Z,8.50
2022-10-23T21:56:57.832Z,8.50
2022-10-23T21:59:29.965Z,8.40
2022-10-23T22:02:00.464Z,8.40
2022-10-23T22:04:27.469Z,8.40
2022-10-23T22:06:54.578Z,8.40
2022-10-23T22:09:22.630Z,8.40
2022-10-23T22:11:54.337Z,8.40
2022-10-23T22:14:23.053Z,8.40
2022-10-23T22:16:50.638Z,8.40
2022-10-23T22:19:19.953Z,8.40
2022-10-23T22:21:48.429Z,8.40
2022-10-23T22:24:17.553Z,8.40
2022-10-23T22:26:53.207Z,8.40
2022-10-23T22:29:24.785Z,8.40
2022-10-23T22:31:54.151Z,8.40
2022-10-23T22:34:53.855Z,8.30
2022-10-23T22:37:16.473Z,8.30
2022-10-23T22:39:43.381Z,8.30
2022-10-23T22:42:11.019Z,8.30
2022-10-23T22:44:38.614Z,8.30
2022-10-23T22:47:06.290Z,8.30
2022-10-23T22:49:33.956Z,8.30
2022-10-23T22:52:00.815Z,8.30
2022-10-23T22:54:27.708Z,8.30
2022-10-23T22:56:56.040Z,8.30
2022-10-23T22:59:24.061Z,8.40
2022-10-23T23:01:53.159Z,8.40
2022-10-23T23:04:38.711Z,8.40
2022-10-23T23:07:08.698Z,8.40
2022-10-23T23:09:42.234Z,8.40
2022-10-23T23:12:12.420Z,8.40
2022-10-23T23:14:40.436Z,8.40
2022-10-23T23:17:09.118Z,8.40
2022-10-23T23:19:36.266Z,8.40
2022-10-23T23:22:03.345Z,8.40
2022-10-23T23:24:30.351Z,8.40
2022-10-23T23:26:57.231Z,8.40
2022-10-23T23:29:24.192Z,8.40
2022-10-23T23:31:51.137Z,8.40
2022-10-23T23:34:18.025Z,8.40
2022-10-23T23:36:45.033Z,8.40
2022-10-23T23:39:13.570Z,8.50
2022-10-23T23:41:43.411Z,8.50
2022-10-23T23:44:11.403Z,8.50
2022-10-23T23:46:39.058Z,8.40
2022-10-23T23:49:07.601Z,8.40
2022-10-23T23:51:35.549Z,8.40
2022-10-23T23:54:03.875Z,8.40
2022-10-23T23:56:32.022Z,8.40
2022-10-23T23:59:00.310Z,8.50
